createdAt,value
2023-04-27T00:02:01.685Z,79.6
2023-04-27T00:17:43.936Z,79.97
2023-04-27T00:33:26.174Z,80.36
2023-04-27T00:49:08.779Z,80.61
2023-04-27T01:04:51.083Z,80.38
2023-04-27T01:20:33.433Z,79
2023-04-27T01:36:16.233Z,78.61
2023-04-27T01:51:58.843Z,77.2
2023-04-27T02:07:40.992Z,78.72
2023-04-27T02:23:24.114Z,78.84
2023-04-27T02:39:07.060Z,79.18
2023-04-27T02:54:49.509Z,79.53
2023-04-27T03:10:32.228Z,79.9
2023-04-27T03:26:14.454Z,79.69
2023-04-27T03:41:57.052Z,80.29
2023-04-27T03:57:39.772Z,80.68
2023-04-27T04:13:22.700Z,80.65
2023-04-27T04:29:05.608Z,80.37
2023-04-27T04:44:47.796Z,79.26
2023-04-27T05:00:30.527Z,78.83
2023-04-27T05:16:13.247Z,77.63
2023-04-27T05:31:55.894Z,76.24
2023-04-27T05:47:38.426Z,74.2
2023-04-27T06:03:20.769Z,73.41
2023-04-27T06:19:03.319Z,72.87
2023-04-27T06:34:45.434Z,70.17
2023-04-27T06:50:27.879Z,69.61
2023-04-27T07:21:52.301Z,63.26
2023-04-27T07:37:35.470Z,61.1
2023-04-27T07:53:17.853Z,59.75
2023-04-27T08:09:00.165Z,57.13
2023-04-27T08:24:42.288Z,53.94
2023-04-27T08:40:25.113Z,53.42
2023-04-27T08:56:07.851Z,50.53
2023-04-27T09:11:50.332Z,55.03
2023-04-27T09:27:33.334Z,57.12
2023-04-27T09:43:15.968Z,51.07
2023-04-27T09:58:58.850Z,51.1
2023-04-27T10:14:41.263Z,49.35
2023-04-27T10:30:24.143Z,50.6
2023-04-27T10:46:06.830Z,52.81
2023-04-27T11:01:49.872Z,45.42
2023-04-27T11:17:32.015Z,35.23
2023-04-27T11:33:14.922Z,39.35
2023-04-27T11:34:02.235Z,39.76
2023-04-27T11:49:44.789Z,41.84
2023-04-27T12:05:27.212Z,38.58
2023-04-27T12:21:09.492Z,39.07
2023-04-27T12:36:51.554Z,35.94
2023-04-27T12:52:34.462Z,37.15
2023-04-27T13:08:16.822Z,35.47
2023-04-27T13:23:59.865Z,37.19
2023-04-27T13:39:42.349Z,38.58
2023-04-27T13:55:24.994Z,37.79
2023-04-27T14:26:49.701Z,32.73
2023-04-27T14:42:32.093Z,30.93
2023-04-27T14:58:14.184Z,32.96
2023-04-27T15:13:56.376Z,35.4
2023-04-27T15:29:39.262Z,36.09
2023-04-27T15:45:22.129Z,38.69
2023-04-27T16:01:04.165Z,37.96
2023-04-27T16:16:46.285Z,38.83
2023-04-27T16:32:28.704Z,31.35
2023-04-27T16:48:11.155Z,29.97
2023-04-27T17:03:54.156Z,29.34
2023-04-27T17:19:37.132Z,32.75
2023-04-27T17:35:19.900Z,32.41
2023-04-27T17:51:02.281Z,35.16
2023-04-27T18:06:44.792Z,37.5
2023-04-27T18:22:27.836Z,39.5
2023-04-27T18:38:10.670Z,42.6
2023-04-27T18:53:53.532Z,47.52
2023-04-27T19:09:36.287Z,50.29
2023-04-27T19:25:18.980Z,52.98
2023-04-27T19:41:01.524Z,56.33
2023-04-27T19:56:44.548Z,59.28
2023-04-27T20:12:27.536Z,62.14
2023-04-27T20:28:09.873Z,64.19
2023-04-27T20:43:52.461Z,68.5
2023-04-27T20:59:35.356Z,70.15
2023-04-27T21:15:17.858Z,72.08
2023-04-27T21:31:00.432Z,77.85
2023-04-27T21:46:43.415Z,82.87
2023-04-27T22:02:26.490Z,83.79
2023-04-27T22:18:09.198Z,86.49
2023-04-27T22:33:52.025Z,88.99
2023-04-27T22:49:34.268Z,90.96
2023-04-27T23:05:16.846Z,91.65
2023-04-27T23:20:59.426Z,91.34
2023-04-27T23:36:42.363Z,92.93
2023-04-27T23:52:25.429Z,94.56
